createdAt,value
2019-01-17T00:01:30.288Z,996.80
2019-01-17T00:03:38.901Z,996.87
2019-01-17T00:05:52.863Z,996.91
2019-01-17T00:08:00.234Z,996.83
2019-01-17T00:10:07.618Z,996.78
2019-01-17T00:12:21.989Z,996.82
2019-01-17T00:14:31.406Z,996.88
2019-01-17T00:16:40.018Z,996.85
2019-01-17T00:18:54.797Z,996.82
2019-01-17T00:21:03.392Z,996.88
2019-01-17T00:23:12.010Z,996.85
2019-01-17T00:25:25.997Z,996.97
2019-01-17T00:27:33.338Z,996.94
2019-01-17T00:29:40.754Z,997.04
2019-01-17T00:33:35.229Z,996.98
2019-01-17T00:35:42.817Z,997.00
2019-01-17T00:37:56.449Z,997.04
2019-01-17T00:40:09.880Z,996.95
2019-01-17T00:42:18.494Z,996.94
2019-01-17T00:44:32.457Z,996.88
2019-01-17T00:46:40.233Z,996.92
2019-01-17T00:48:48.847Z,996.94
2019-01-17T00:51:02.402Z,996.96
2019-01-17T00:53:10.997Z,996.99
2019-01-17T00:55:18.383Z,996.99
2019-01-17T00:57:33.574Z,996.99
2019-01-17T00:59:40.940Z,997.03
2019-01-17T01:01:48.326Z,997.03
2019-01-17T01:04:04.340Z,997.10
2019-01-17T01:06:11.703Z,997.15
2019-01-17T01:08:19.090Z,997.13
2019-01-17T01:10:34.285Z,997.05
2019-01-17T01:12:42.894Z,997.11
2019-01-17T01:14:50.262Z,997.05
2019-01-17T01:17:08.324Z,997.12
2019-01-17T01:19:16.915Z,997.10
2019-01-17T01:21:25.539Z,997.08
2019-01-17T01:23:40.314Z,997.17
2019-01-17T01:25:53.639Z,997.08
2019-01-17T01:28:01.214Z,997.05
2019-01-17T01:30:15.579Z,997.01
2019-01-17T01:32:29.522Z,997.09
2019-01-17T01:34:36.889Z,997.13
2019-01-17T01:36:44.284Z,997.02
2019-01-17T01:38:59.466Z,997.04
2019-01-17T01:41:08.070Z,997.05
2019-01-17T01:43:16.680Z,997.06
2019-01-17T01:45:32.694Z,997.15
2019-01-17T01:47:41.281Z,997.23
2019-01-17T01:49:50.718Z,997.22
2019-01-17T01:52:04.684Z,997.18
2019-01-17T01:54:14.093Z,997.12
2019-01-17T01:56:21.481Z,997.10
2019-01-17T01:58:35.444Z,997.14
2019-01-17T02:02:31.917Z,997.25
2019-01-17T02:04:39.565Z,997.16
2019-01-17T02:06:53.119Z,997.18
2019-01-17T02:10:49.590Z,997.26
2019-01-17T02:13:03.806Z,997.22
2019-01-17T02:15:12.399Z,997.17
2019-01-17T02:17:19.787Z,997.24
2019-01-17T02:19:33.753Z,997.13
2019-01-17T02:21:51.790Z,997.19
2019-01-17T02:24:01.204Z,997.14
2019-01-17T02:26:08.592Z,997.10
2019-01-17T02:28:23.780Z,997.16
2019-01-17T02:30:32.381Z,997.14
2019-01-17T02:32:42.220Z,997.19
2019-01-17T02:34:56.999Z,997.14
2019-01-17T02:37:04.370Z,997.18
2019-01-17T02:39:13.800Z,997.09
2019-01-17T02:41:27.791Z,997.07
2019-01-17T02:43:36.362Z,996.97
2019-01-17T02:47:30.840Z,996.76
2019-01-17T02:51:25.305Z,996.66
2019-01-17T02:55:51.625Z,996.57
2019-01-17T02:58:00.276Z,996.67
2019-01-17T03:00:07.607Z,996.73
2019-01-17T03:02:21.568Z,996.70
2019-01-17T03:04:30.982Z,996.77
2019-01-17T03:06:40.417Z,996.78
2019-01-17T03:08:58.476Z,996.80
2019-01-17T03:11:15.263Z,996.80
2019-01-17T03:13:24.694Z,996.80
2019-01-17T03:15:38.657Z,996.69
2019-01-17T03:17:54.650Z,996.76
2019-01-17T03:20:04.063Z,996.76
2019-01-17T03:22:13.497Z,996.90
2019-01-17T03:24:27.466Z,996.87
2019-01-17T03:26:34.829Z,996.90
2019-01-17T03:28:44.263Z,996.90
2019-01-17T03:30:59.456Z,996.90
2019-01-17T03:34:55.930Z,997.00
2019-01-17T03:37:14.246Z,996.95
2019-01-17T03:39:23.654Z,996.90
2019-01-17T03:41:32.268Z,996.91
2019-01-17T03:43:46.236Z,997.00
2019-01-17T03:45:54.832Z,997.00
2019-01-17T03:48:02.219Z,996.98
2019-01-17T03:50:16.180Z,996.98
2019-01-17T03:52:23.544Z,996.79
2019-01-17T03:54:30.938Z,996.75
2019-01-17T03:56:45.321Z,996.80
2019-01-17T03:58:53.902Z,996.77
2019-01-17T04:01:04.563Z,996.81
2019-01-17T04:03:18.117Z,996.79
2019-01-17T04:05:26.716Z,996.81
2019-01-17T04:07:34.094Z,996.83
2019-01-17T04:09:48.088Z,996.88
2019-01-17T04:11:55.430Z,996.82
2019-01-17T04:14:04.855Z,996.80
2019-01-17T04:16:19.228Z,996.92
2019-01-17T04:18:31.102Z,996.75
2019-01-17T04:20:38.492Z,996.74
2019-01-17T04:24:34.959Z,996.80
2019-01-17T04:26:42.627Z,996.86
2019-01-17T04:28:56.176Z,996.86
2019-01-17T04:31:10.509Z,996.86
2019-01-17T04:35:36.363Z,996.81
2019-01-17T04:37:51.127Z,996.63
2019-01-17T04:39:58.495Z,996.67
2019-01-17T04:42:07.107Z,996.66
2019-01-17T04:44:23.130Z,996.62
2019-01-17T04:46:31.712Z,996.70
2019-01-17T04:48:41.148Z,996.70
2019-01-17T04:50:55.109Z,996.63
2019-01-17T04:53:05.750Z,996.74
2019-01-17T04:55:20.100Z,996.63
2019-01-17T04:57:34.059Z,996.74
2019-01-17T04:59:41.431Z,996.75
2019-01-17T05:01:50.862Z,996.75
2019-01-17T05:04:05.240Z,996.86
2019-01-17T05:06:12.604Z,996.83
2019-01-17T05:08:26.133Z,996.84
2019-01-17T05:10:41.324Z,996.92
2019-01-17T05:12:52.410Z,996.91
2019-01-17T05:15:05.938Z,996.89
2019-01-17T05:19:02.410Z,996.82
2019-01-17T05:21:10.058Z,996.82
2019-01-17T05:23:23.598Z,996.76
2019-01-17T05:25:30.964Z,996.67
2019-01-17T05:27:39.581Z,996.72
2019-01-17T05:29:53.544Z,996.72
2019-01-17T05:32:00.910Z,996.83
2019-01-17T05:34:09.525Z,996.82
2019-01-17T05:36:25.531Z,996.79
2019-01-17T05:38:40.275Z,996.84
2019-01-17T05:40:47.660Z,996.76
2019-01-17T05:43:01.717Z,996.75
2019-01-17T05:45:15.579Z,996.72
2019-01-17T05:47:24.172Z,996.71
2019-01-17T05:49:33.595Z,996.81
2019-01-17T05:51:49.606Z,996.70
2019-01-17T05:53:57.062Z,996.76
2019-01-17T05:56:06.410Z,996.82
2019-01-17T05:58:20.781Z,996.81
2019-01-17T06:00:29.378Z,996.78
2019-01-17T06:02:36.762Z,996.72
2019-01-17T06:04:54.828Z,996.77
2019-01-17T06:07:02.186Z,996.69
2019-01-17T06:09:09.575Z,996.61
2019-01-17T06:11:23.537Z,996.73
2019-01-17T06:13:30.900Z,996.64
2019-01-17T06:15:39.519Z,996.67
2019-01-17T06:17:53.483Z,996.62
2019-01-17T06:20:02.891Z,996.67
2019-01-17T06:22:11.512Z,996.56
2019-01-17T06:24:26.702Z,996.55
2019-01-17T06:26:34.069Z,996.54
2019-01-17T06:28:42.689Z,996.55
2019-01-17T06:30:56.751Z,996.58
2019-01-17T06:33:04.420Z,996.56
2019-01-17T06:35:13.859Z,996.53
2019-01-17T06:37:27.820Z,996.52
2019-01-17T06:39:36.414Z,996.51
2019-01-17T06:41:45.029Z,996.53
2019-01-17T06:45:39.510Z,996.51
2019-01-17T06:50:03.553Z,996.49
2019-01-17T06:52:16.874Z,996.49
2019-01-17T06:54:24.212Z,996.49
2019-01-17T06:56:38.556Z,996.45
2019-01-17T06:58:45.886Z,996.47
2019-01-17T07:00:53.211Z,996.42
2019-01-17T07:03:07.560Z,996.41
2019-01-17T07:05:15.941Z,996.39
2019-01-17T07:07:23.216Z,996.45
2019-01-17T07:09:37.560Z,996.43
2019-01-17T07:11:44.893Z,996.43
2019-01-17T07:13:56.237Z,996.47
2019-01-17T07:16:10.571Z,996.55
2019-01-17T07:18:17.902Z,996.41
2019-01-17T07:20:25.225Z,996.42
2019-01-17T07:22:39.573Z,996.43
2019-01-17T07:24:46.890Z,996.44
2019-01-17T07:26:54.226Z,996.41
2019-01-17T07:29:09.556Z,996.52
2019-01-17T07:31:16.883Z,996.39
2019-01-17T07:33:24.217Z,996.43
2019-01-17T07:35:39.564Z,996.32
2019-01-17T07:37:46.897Z,996.40
2019-01-17T07:39:54.230Z,996.40
2019-01-17T07:42:08.577Z,996.43
2019-01-17T07:44:15.908Z,996.38
2019-01-17T07:46:23.241Z,996.34
2019-01-17T07:48:37.579Z,996.29
2019-01-17T07:50:45.901Z,996.26
2019-01-17T07:52:53.237Z,996.35
2019-01-17T07:55:09.573Z,996.35
2019-01-17T07:57:16.909Z,996.35
2019-01-17T07:59:24.243Z,996.37
2019-01-17T08:01:38.577Z,996.42
2019-01-17T08:03:45.905Z,996.41
2019-01-17T08:05:53.240Z,996.28
2019-01-17T08:08:08.577Z,996.22
2019-01-17T08:10:15.907Z,996.20
2019-01-17T08:12:23.240Z,996.18
2019-01-17T08:14:37.587Z,996.18
2019-01-17T08:16:44.922Z,996.15
2019-01-17T08:18:53.243Z,996.05
2019-01-17T08:21:07.581Z,996.02
2019-01-17T08:23:21.589Z,995.98
2019-01-17T08:25:28.924Z,995.97
2019-01-17T08:27:36.251Z,995.98
2019-01-17T08:29:50.580Z,995.97
2019-01-17T08:31:57.913Z,995.98
2019-01-17T08:34:11.605Z,995.95
2019-01-17T08:36:18.943Z,995.91
2019-01-17T08:38:26.276Z,995.91
2019-01-17T08:40:40.610Z,995.91
2019-01-17T08:42:47.947Z,995.93
2019-01-17T08:44:55.285Z,995.96
2019-01-17T08:47:09.607Z,996.07
2019-01-17T08:49:16.936Z,996.04
2019-01-17T08:51:24.273Z,995.95
2019-01-17T08:53:38.618Z,995.98
2019-01-17T08:55:45.952Z,995.94
2019-01-17T08:57:53.285Z,995.82
2019-01-17T09:00:07.601Z,995.90
2019-01-17T09:02:14.937Z,995.85
2019-01-17T09:04:28.606Z,995.93
2019-01-17T09:06:35.943Z,995.88
2019-01-17T09:08:43.270Z,995.92
2019-01-17T09:10:57.600Z,995.86
2019-01-17T09:13:04.968Z,995.90
2019-01-17T09:15:12.296Z,995.94
2019-01-17T09:17:27.610Z,995.87
2019-01-17T09:19:34.944Z,995.90
2019-01-17T09:21:42.272Z,995.91
2019-01-17T09:23:56.623Z,995.87
2019-01-17T09:26:07.470Z,995.92
2019-01-17T09:28:11.285Z,996.00
2019-01-17T09:30:25.619Z,995.98
2019-01-17T09:32:32.960Z,996.03
2019-01-17T09:34:40.294Z,996.12
2019-01-17T09:36:54.627Z,996.17
2019-01-17T09:39:02.953Z,996.16
2019-01-17T09:41:10.291Z,996.10
2019-01-17T09:43:24.624Z,996.37
2019-01-17T09:45:31.961Z,996.52
2019-01-17T09:47:39.287Z,996.40
2019-01-17T09:49:53.638Z,996.44
2019-01-17T09:52:00.972Z,996.35
2019-01-17T09:54:08.307Z,996.38
2019-01-17T09:56:22.630Z,996.38
2019-01-17T09:58:29.969Z,996.46
2019-01-17T10:00:37.293Z,996.49
2019-01-17T10:02:51.804Z,996.47
2019-01-17T10:04:59.138Z,996.44
2019-01-17T10:07:06.472Z,996.41
2019-01-17T10:09:20.633Z,996.41
2019-01-17T10:11:34.660Z,996.53
2019-01-17T10:13:41.992Z,996.48
2019-01-17T10:15:49.327Z,996.42
2019-01-17T10:18:03.660Z,996.38
2019-01-17T10:20:10.994Z,996.54
2019-01-17T10:22:18.326Z,996.40
2019-01-17T10:24:32.712Z,996.49
2019-01-17T10:26:40.014Z,996.53
2019-01-17T10:28:47.348Z,996.39
2019-01-17T10:31:01.676Z,996.46
2019-01-17T10:33:09.014Z,996.40
2019-01-17T10:35:16.344Z,996.37
2019-01-17T10:37:30.688Z,996.41
2019-01-17T10:39:38.026Z,996.46
2019-01-17T10:41:45.356Z,996.45
2019-01-17T10:43:59.676Z,996.44
2019-01-17T10:46:07.009Z,996.44
2019-01-17T10:48:14.344Z,996.49
2019-01-17T10:50:28.669Z,996.42
2019-01-17T10:52:36.003Z,996.43
2019-01-17T10:54:49.674Z,996.42
2019-01-17T10:56:57.045Z,996.42
2019-01-17T10:59:04.371Z,996.58
2019-01-17T11:01:18.702Z,996.64
2019-01-17T11:03:26.033Z,996.67
2019-01-17T11:05:33.365Z,996.66
2019-01-17T11:07:47.681Z,996.72
2019-01-17T11:09:55.015Z,996.72
2019-01-17T11:12:02.345Z,996.84
2019-01-17T11:14:16.719Z,996.82
2019-01-17T11:16:24.012Z,996.75
2019-01-17T11:18:31.332Z,996.86
2019-01-17T11:20:45.676Z,996.97
2019-01-17T11:22:53.009Z,996.91
2019-01-17T11:25:00.343Z,996.96
2019-01-17T11:27:14.686Z,996.90
2019-01-17T11:29:22.017Z,997.00
2019-01-17T11:31:29.352Z,996.97
2019-01-17T11:33:43.684Z,997.08
2019-01-17T11:35:51.016Z,997.04
2019-01-17T11:37:58.352Z,997.05
2019-01-17T11:40:12.695Z,997.05
2019-01-17T11:42:20.030Z,997.14
2019-01-17T11:44:27.360Z,997.20
2019-01-17T11:46:41.699Z,997.14
2019-01-17T11:48:49.031Z,997.17
2019-01-17T11:50:56.366Z,997.24
2019-01-17T11:53:10.707Z,997.22
2019-01-17T11:55:18.051Z,997.16
2019-01-17T11:57:25.378Z,997.25
2019-01-17T11:59:39.700Z,997.38
2019-01-17T12:01:47.047Z,997.37
2019-01-17T12:03:54.383Z,997.30
2019-01-17T12:06:08.710Z,997.43
2019-01-17T12:08:16.044Z,997.39
2019-01-17T12:10:23.379Z,997.41
2019-01-17T12:12:37.718Z,997.47
2019-01-17T12:14:45.052Z,997.49
2019-01-17T12:16:52.381Z,997.45
2019-01-17T12:19:06.716Z,997.46
2019-01-17T12:21:14.058Z,997.52
2019-01-17T12:23:21.399Z,997.57
2019-01-17T12:25:35.731Z,997.67
2019-01-17T12:27:43.061Z,997.64
2019-01-17T12:29:53.528Z,997.69
2019-01-17T12:32:08.724Z,997.64
2019-01-17T12:34:16.057Z,997.74
2019-01-17T12:36:23.386Z,997.65
2019-01-17T12:38:37.737Z,997.83
2019-01-17T12:40:45.069Z,997.75
2019-01-17T12:42:52.400Z,997.85
2019-01-17T12:45:06.730Z,997.83
2019-01-17T12:47:14.059Z,997.90
2019-01-17T12:49:21.408Z,997.99
2019-01-17T12:51:35.725Z,998.09
2019-01-17T12:53:49.772Z,998.11
2019-01-17T12:55:57.145Z,998.11
2019-01-17T12:58:04.433Z,998.16
2019-01-17T13:00:18.766Z,998.12
2019-01-17T13:02:26.096Z,998.14
2019-01-17T13:04:33.430Z,998.23
2019-01-17T13:06:47.757Z,998.20
2019-01-17T13:08:55.100Z,998.20
2019-01-17T13:11:02.424Z,998.20
2019-01-17T13:13:16.755Z,998.23
2019-01-17T13:15:30.754Z,998.25
2019-01-17T13:17:38.087Z,998.40
2019-01-17T13:19:45.425Z,998.33
2019-01-17T13:21:59.758Z,998.43
2019-01-17T13:24:07.093Z,998.45
2019-01-17T13:26:14.427Z,998.57
2019-01-17T13:28:28.756Z,998.65
2019-01-17T13:30:42.760Z,998.71
2019-01-17T13:32:50.098Z,998.77
2019-01-17T13:34:57.432Z,998.76
2019-01-17T13:37:11.766Z,998.73
2019-01-17T13:39:19.138Z,998.73
2019-01-17T13:41:26.472Z,998.80
2019-01-17T13:43:40.798Z,998.85
2019-01-17T13:45:54.793Z,998.85
2019-01-17T13:48:02.128Z,998.91
2019-01-17T13:50:09.458Z,998.88
2019-01-17T13:52:23.793Z,998.90
2019-01-17T13:54:31.129Z,998.93
2019-01-17T13:56:38.457Z,999.09
2019-01-17T13:58:52.780Z,999.07
2019-01-17T14:01:06.773Z,999.10
2019-01-17T14:03:14.111Z,999.23
2019-01-17T14:05:27.803Z,999.26
2019-01-17T14:07:35.137Z,999.37
2019-01-17T14:09:42.473Z,999.43
2019-01-17T14:11:56.851Z,999.56
2019-01-17T14:14:04.137Z,999.58
2019-01-17T14:16:11.472Z,999.68
2019-01-17T14:18:27.930Z,999.68
2019-01-17T14:20:33.141Z,999.81
2019-01-17T14:22:40.475Z,999.85
2019-01-17T14:24:54.811Z,999.97
2019-01-17T14:27:02.151Z,1000.05
2019-01-17T14:29:09.526Z,1000.05
2019-01-17T14:31:23.815Z,1000.26
2019-01-17T14:33:31.150Z,1000.17
2019-01-17T14:35:38.483Z,1000.02
2019-01-17T14:37:52.826Z,1000.01
2019-01-17T14:40:00.249Z,999.97
2019-01-17T14:42:07.491Z,999.96
2019-01-17T14:44:21.829Z,1000.00
2019-01-17T14:46:29.164Z,1000.05
2019-01-17T14:48:36.504Z,1000.14
2019-01-17T14:50:50.830Z,1000.25
2019-01-17T14:52:58.169Z,1000.22
2019-01-17T14:55:05.506Z,1000.28
2019-01-17T14:57:20.741Z,1000.34
2019-01-17T14:59:27.164Z,1000.39
2019-01-17T15:01:34.500Z,1000.42
2019-01-17T15:03:48.840Z,1000.45
2019-01-17T15:05:56.174Z,1000.54
2019-01-17T15:08:03.510Z,1000.55
2019-01-17T15:10:17.844Z,1000.65
2019-01-17T15:12:25.180Z,1000.65
2019-01-17T15:14:32.509Z,1000.75
2019-01-17T15:16:46.847Z,1000.83
2019-01-17T15:18:54.178Z,1000.90
2019-01-17T15:21:01.518Z,1000.80
2019-01-17T15:23:15.841Z,1000.88
2019-01-17T15:25:23.169Z,1001.04
2019-01-17T15:27:30.502Z,1001.10
2019-01-17T15:29:44.842Z,1001.10
2019-01-17T15:31:52.173Z,1001.09
2019-01-17T15:33:59.509Z,1001.17
2019-01-17T15:36:13.854Z,1001.18
2019-01-17T15:38:21.190Z,1001.33
2019-01-17T15:40:28.528Z,1001.41
2019-01-17T15:42:42.871Z,1001.42
2019-01-17T15:44:50.196Z,1001.43
2019-01-17T15:46:57.556Z,1001.34
2019-01-17T15:49:11.865Z,1001.35
2019-01-17T15:51:20.198Z,1001.39
2019-01-17T15:53:27.531Z,1001.45
2019-01-17T15:55:41.862Z,1001.52
2019-01-17T15:57:49.197Z,1001.50
2019-01-17T15:59:56.530Z,1001.60
2019-01-17T16:02:10.863Z,1001.71
2019-01-17T16:04:18.200Z,1001.68
2019-01-17T16:06:25.529Z,1001.75
2019-01-17T16:08:41.131Z,1001.71
2019-01-17T16:10:48.496Z,1001.66
2019-01-17T16:12:55.883Z,1001.73
2019-01-17T16:15:10.255Z,1001.70
2019-01-17T16:17:17.626Z,1001.70
2019-01-17T16:19:27.055Z,1001.73
2019-01-17T16:21:41.020Z,1001.73
2019-01-17T16:23:48.379Z,1001.82
2019-01-17T16:25:55.771Z,1001.79
2019-01-17T16:28:10.973Z,1001.80
2019-01-17T16:30:24.905Z,1001.83
2019-01-17T16:32:33.498Z,1001.77
2019-01-17T16:34:40.886Z,1001.76
2019-01-17T16:36:54.892Z,1001.83
2019-01-17T16:39:02.619Z,1001.81
2019-01-17T16:41:11.240Z,1001.81
2019-01-17T16:43:25.200Z,1001.86
2019-01-17T16:45:35.551Z,1001.85
2019-01-17T16:47:42.125Z,1001.90
2019-01-17T16:51:36.604Z,1001.80
2019-01-17T16:53:44.931Z,1001.82
2019-01-17T16:55:58.641Z,1001.90
2019-01-17T16:58:06.244Z,1001.85
2019-01-17T17:00:13.628Z,1001.95
2019-01-17T17:02:28.009Z,1001.88
2019-01-17T17:04:36.594Z,1001.95
2019-01-17T17:06:43.930Z,1001.95
2019-01-17T17:08:59.176Z,1001.94
2019-01-17T17:11:07.785Z,1001.93
2019-01-17T17:13:15.163Z,1001.87
2019-01-17T17:15:28.656Z,1001.96
2019-01-17T17:17:36.073Z,1001.98
2019-01-17T17:19:43.407Z,1002.00
2019-01-17T17:21:57.659Z,1001.96
2019-01-17T17:24:05.203Z,1001.99
2019-01-17T17:26:12.591Z,1002.10
2019-01-17T17:28:26.958Z,1002.11
2019-01-17T17:30:35.563Z,1002.07
2019-01-17T17:32:42.935Z,1002.08
2019-01-17T17:34:56.898Z,1002.02
2019-01-17T17:37:04.272Z,1002.11
2019-01-17T17:39:11.657Z,1002.19
2019-01-17T17:41:26.027Z,1002.20
2019-01-17T17:43:33.397Z,1002.27
2019-01-17T17:45:40.780Z,1002.28
2019-01-17T17:47:54.737Z,1002.40
2019-01-17T17:50:02.111Z,1002.41
2019-01-17T17:52:10.728Z,1002.44
2019-01-17T17:54:25.109Z,1002.47
2019-01-17T17:56:32.460Z,1002.61
2019-01-17T17:58:39.849Z,1002.53
2019-01-17T18:00:53.811Z,1002.58
2019-01-17T18:03:01.592Z,1002.63
2019-01-17T18:05:11.025Z,1002.67
2019-01-17T18:07:24.677Z,1002.80
2019-01-17T18:09:33.004Z,1002.91
2019-01-17T18:11:40.552Z,1002.98
2019-01-17T18:13:56.981Z,1003.00
2019-01-17T18:16:05.571Z,1003.08
2019-01-17T18:18:12.958Z,1003.17
2019-01-17T18:20:27.744Z,1003.13
2019-01-17T18:22:35.105Z,1003.23
2019-01-17T18:24:42.442Z,1003.35
2019-01-17T18:26:56.867Z,1003.41
2019-01-17T18:29:05.462Z,1003.48
2019-01-17T18:31:12.844Z,1003.52
2019-01-17T18:33:28.069Z,1003.50
2019-01-17T18:35:36.639Z,1003.62
2019-01-17T18:37:44.018Z,1003.56
2019-01-17T18:39:58.799Z,1003.59
2019-01-17T18:42:06.140Z,1003.79
2019-01-17T18:44:13.553Z,1003.84
2019-01-17T18:46:27.928Z,1003.86
2019-01-17T18:48:35.297Z,1003.98
2019-01-17T18:50:42.685Z,1003.93
2019-01-17T18:52:58.720Z,1003.99
2019-01-17T18:55:06.464Z,1004.08
2019-01-17T18:57:13.857Z,1004.17
2019-01-17T18:59:27.817Z,1004.29
2019-01-17T19:01:35.167Z,1004.38
2019-01-17T19:03:42.568Z,1004.49
2019-01-17T19:05:56.940Z,1004.52
2019-01-17T19:08:05.536Z,1004.71
2019-01-17T19:10:14.149Z,1004.75
2019-01-17T19:12:27.740Z,1004.81
2019-01-17T19:14:36.310Z,1004.73
2019-01-17T19:16:44.918Z,1004.84
2019-01-17T19:18:58.879Z,1004.93
2019-01-17T19:21:06.243Z,1004.98
2019-01-17T19:23:14.886Z,1004.98
2019-01-17T19:25:28.823Z,1005.03
2019-01-17T19:27:37.415Z,1005.05
2019-01-17T19:29:45.743Z,1005.12
2019-01-17T19:32:02.048Z,1005.16
2019-01-17T19:34:09.414Z,1005.25
2019-01-17T19:36:23.781Z,1005.20
2019-01-17T19:38:31.156Z,1005.19
2019-01-17T19:40:38.535Z,1005.18
2019-01-17T19:42:54.139Z,1005.15
2019-01-17T19:45:02.736Z,1005.34
2019-01-17T19:47:10.123Z,1005.40
2019-01-17T19:49:24.081Z,1005.50
2019-01-17T19:51:38.028Z,1005.55
2019-01-17T19:53:45.387Z,1005.58
2019-01-17T19:55:52.787Z,1005.59
2019-01-17T19:58:07.147Z,1005.62
2019-01-17T20:00:14.520Z,1005.69
2019-01-17T20:02:21.901Z,1005.65
2019-01-17T20:04:41.545Z,1005.77
2019-01-17T20:06:43.227Z,1005.79
2019-01-17T20:08:50.618Z,1005.77
2019-01-17T20:11:04.982Z,1005.78
2019-01-17T20:13:12.353Z,1005.86
2019-01-17T20:15:19.737Z,1005.85
2019-01-17T20:17:34.107Z,1005.97
2019-01-17T20:19:42.708Z,1005.97
2019-01-17T20:21:52.141Z,1006.02
2019-01-17T20:24:06.106Z,1006.03
2019-01-17T20:26:14.700Z,1006.07
2019-01-17T20:28:23.320Z,1006.22
2019-01-17T20:30:36.863Z,1006.23
2019-01-17T20:32:45.459Z,1006.30
2019-01-17T20:34:52.848Z,1006.36
2019-01-17T20:37:08.036Z,1006.41
2019-01-17T20:39:15.403Z,1006.39
2019-01-17T20:41:22.791Z,1006.44
2019-01-17T20:43:37.169Z,1006.48
2019-01-17T20:45:44.529Z,1006.47
2019-01-17T20:47:53.961Z,1006.39
2019-01-17T20:50:07.922Z,1006.58
2019-01-17T20:52:15.291Z,1006.70
2019-01-17T20:54:23.910Z,1006.67
2019-01-17T20:56:37.872Z,1006.75
2019-01-17T20:58:45.236Z,1006.68
2019-01-17T21:00:54.675Z,1006.80
2019-01-17T21:03:09.941Z,1006.86
2019-01-17T21:05:17.637Z,1006.95
2019-01-17T21:07:25.025Z,1006.98
2019-01-17T21:09:41.039Z,1007.00
2019-01-17T21:11:49.628Z,1007.03
2019-01-17T21:13:58.289Z,1007.00
2019-01-17T21:16:15.893Z,1006.99
2019-01-17T21:18:29.449Z,1007.04
2019-01-17T21:20:36.797Z,1007.08
2019-01-17T21:22:51.164Z,1007.14
2019-01-17T21:24:58.536Z,1007.13
2019-01-17T21:27:07.959Z,1007.19
2019-01-17T21:29:21.924Z,1007.23
2019-01-17T21:31:31.340Z,1007.16
2019-01-17T21:33:38.727Z,1007.25
2019-01-17T21:35:53.097Z,1007.27
2019-01-17T21:38:00.462Z,1007.29
2019-01-17T21:40:09.080Z,1007.33
2019-01-17T21:42:23.040Z,1007.33
2019-01-17T21:44:30.407Z,1007.30
2019-01-17T21:46:37.796Z,1007.41
2019-01-17T21:48:52.165Z,1007.43
2019-01-17T21:51:01.587Z,1007.47
2019-01-17T21:53:08.965Z,1007.54
2019-01-17T21:55:22.929Z,1007.53
2019-01-17T21:57:32.344Z,1007.58
2019-01-17T21:59:39.731Z,1007.63
2019-01-17T22:01:54.106Z,1007.59
2019-01-17T22:04:05.569Z,1007.69
2019-01-17T22:06:19.977Z,1007.79
2019-01-17T22:08:27.715Z,1007.76
2019-01-17T22:10:35.099Z,1007.73
2019-01-17T22:12:49.065Z,1007.75
2019-01-17T22:14:57.790Z,1007.85
2019-01-17T22:17:05.451Z,1007.84
2019-01-17T22:19:19.009Z,1007.86
2019-01-17T22:21:27.606Z,1007.95
2019-01-17T22:23:34.988Z,1007.93
2019-01-17T22:25:48.950Z,1007.93
2019-01-17T22:30:06.989Z,1007.91
2019-01-17T22:32:22.175Z,1007.93
2019-01-17T22:34:29.539Z,1007.98
2019-01-17T22:36:36.927Z,1007.99
2019-01-17T22:38:50.891Z,1008.05
2019-01-17T22:40:59.481Z,1008.13
2019-01-17T22:43:06.868Z,1008.14
2019-01-17T22:45:20.832Z,1008.15
2019-01-17T22:47:29.426Z,1008.05
2019-01-17T22:49:36.813Z,1008.25
2019-01-17T22:51:52.007Z,1008.20
2019-01-17T22:54:00.598Z,1008.20
2019-01-17T22:56:07.987Z,1008.15
2019-01-17T22:58:21.953Z,1008.19
2019-01-17T23:00:29.316Z,1008.27
2019-01-17T23:02:37.933Z,1008.26
2019-01-17T23:04:51.895Z,1008.25
2019-01-17T23:06:59.263Z,1008.29
2019-01-17T23:09:07.883Z,1008.26
2019-01-17T23:11:22.245Z,1008.28
2019-01-17T23:13:29.617Z,1008.37
2019-01-17T23:15:37.001Z,1008.27
2019-01-17T23:17:52.194Z,1008.35
2019-01-17T23:20:00.816Z,1008.42
2019-01-17T23:22:08.176Z,1008.44
2019-01-17T23:24:22.134Z,1008.41
2019-01-17T23:26:29.501Z,1008.49
2019-01-17T23:28:38.116Z,1008.49
2019-01-17T23:30:52.901Z,1008.43
2019-01-17T23:33:00.264Z,1008.52
2019-01-17T23:35:07.654Z,1008.58
2019-01-17T23:37:22.024Z,1008.58
2019-01-17T23:39:29.391Z,1008.58
2019-01-17T23:41:36.779Z,1008.67
2019-01-17T23:43:51.149Z,1008.62
2019-01-17T23:45:59.747Z,1008.62
2019-01-17T23:48:07.134Z,1008.70
2019-01-17T23:50:25.199Z,1008.69
2019-01-17T23:52:32.560Z,1008.68
2019-01-17T23:54:39.952Z,1008.70
2019-01-17T23:56:53.947Z,1008.75
2019-01-17T23:59:01.682Z,1008.80
